sensor_id;sensor_type;location;lat;lon;timestamp;P1;durP1;ratioP1;P2;durP2;ratioP2
16113;SDS011;8161;-33.910;151.156;2022-07-09T00:02:02;1.35;;;0.60;;
16113;SDS011;8161;-33.910;151.156;2022-07-09T00:04:29;1.55;;;0.77;;
16113;SDS011;8161;-33.910;151.156;2022-07-09T00:06:57;2.50;;;0.88;;
16113;SDS011;8161;-33.910;151.156;2022-07-09T00:09:24;2.20;;;0.52;;
16113;SDS011;8161;-33.910;151.156;2022-07-09T00:11:51;1.40;;;0.60;;
16113;SDS011;8161;-33.910;151.156;2022-07-09T00:14:19;1.38;;;0.50;;
16113;SDS011;8161;-33.910;151.156;2022-07-09T00:16:46;2.90;;;0.95;;
16113;SDS011;8161;-33.910;151.156;2022-07-09T00:19:14;2.13;;;0.50;;
16113;SDS011;8161;-33.910;151.156;2022-07-09T00:21:41;1.20;;;0.63;;
16113;SDS011;8161;-33.910;151.156;2022-07-09T00:24:08;3.00;;;0.50;;
16113;SDS011;8161;-33.910;151.156;2022-07-09T00:26:36;2.63;;;0.60;;
16113;SDS011;8161;-33.910;151.156;2022-07-09T00:29:03;2.20;;;0.70;;
16113;SDS011;8161;-33.910;151.156;2022-07-09T00:31:30;1.42;;;0.50;;
16113;SDS011;8161;-33.910;151.156;2022-07-09T00:33:58;1.08;;;0.80;;
16113;SDS011;8161;-33.910;151.156;2022-07-09T00:36:25;1.55;;;0.70;;
16113;SDS011;8161;-33.910;151.156;2022-07-09T00:38:52;4.15;;;0.80;;
16113;SDS011;8161;-33.910;151.156;2022-07-09T00:41:19;1.88;;;0.80;;
16113;SDS011;8161;-33.910;151.156;2022-07-09T00:43:47;5.00;;;0.65;;
16113;SDS011;8161;-33.910;151.156;2022-07-09T00:46:16;1.00;;;0.40;;
16113;SDS011;8161;-33.910;151.156;2022-07-09T00:48:43;1.77;;;0.60;;
16113;SDS011;8161;-33.910;151.156;2022-07-09T00:51:11;1.92;;;0.70;;
16113;SDS011;8161;-33.910;151.156;2022-07-09T00:53:40;2.55;;;0.52;;
16113;SDS011;8161;-33.910;151.156;2022-07-09T00:56:07;1.48;;;0.70;;
16113;SDS011;8161;-33.910;151.156;2022-07-09T00:58:35;0.55;;;0.32;;
16113;SDS011;8161;-33.910;151.156;2022-07-09T01:01:03;1.98;;;0.55;;
16113;SDS011;8161;-33.910;151.156;2022-07-09T01:03:32;0.90;;;0.50;;
16113;SDS011;8161;-33.910;151.156;2022-07-09T01:05:59;2.63;;;0.38;;
16113;SDS011;8161;-33.910;151.156;2022-07-09T01:08:26;3.08;;;0.60;;
16113;SDS011;8161;-33.910;151.156;2022-07-09T01:10:54;1.00;;;0.50;;
16113;SDS011;8161;-33.910;151.156;2022-07-09T01:13:21;1.30;;;0.60;;
16113;SDS011;8161;-33.910;151.156;2022-07-09T01:15:50;1.85;;;0.57;;
16113;SDS011;8161;-33.910;151.156;2022-07-09T01:18:17;2.05;;;0.70;;
16113;SDS011;8161;-33.910;151.156;2022-07-09T01:20:45;1.92;;;0.70;;
16113;SDS011;8161;-33.910;151.156;2022-07-09T01:23:12;2.35;;;0.60;;
16113;SDS011;8161;-33.910;151.156;2022-07-09T01:25:41;1.58;;;0.60;;
16113;SDS011;8161;-33.910;151.156;2022-07-09T01:28:11;2.17;;;0.65;;
16113;SDS011;8161;-33.910;151.156;2022-07-09T01:30:39;1.42;;;0.52;;
16113;SDS011;8161;-33.910;151.156;2022-07-09T01:33:07;3.58;;;0.60;;
16113;SDS011;8161;-33.910;151.156;2022-07-09T01:35:34;2.08;;;0.70;;
16113;SDS011;8161;-33.910;151.156;2022-07-09T01:38:02;1.20;;;0.50;;
16113;SDS011;8161;-33.910;151.156;2022-07-09T01:40:29;2.17;;;0.68;;
16113;SDS011;8161;-33.910;151.156;2022-07-09T01:42:57;1.38;;;0.60;;
16113;SDS011;8161;-33.910;151.156;2022-07-09T01:45:24;1.48;;;0.40;;
16113;SDS011;8161;-33.910;151.156;2022-07-09T01:47:51;2.13;;;0.80;;
16113;SDS011;8161;-33.910;151.156;2022-07-09T01:50:19;1.17;;;0.57;;
16113;SDS011;8161;-33.910;151.156;2022-07-09T01:52:46;0.73;;;0.40;;
16113;SDS011;8161;-33.910;151.156;2022-07-09T01:55:14;0.85;;;0.30;;
16113;SDS011;8161;-33.910;151.156;2022-07-09T01:57:41;1.42;;;0.60;;
16113;SDS011;8161;-33.910;151.156;2022-07-09T02:00:08;2.80;;;0.70;;
16113;SDS011;8161;-33.910;151.156;2022-07-09T02:02:36;1.60;;;0.80;;
16113;SDS011;8161;-33.910;151.156;2022-07-09T02:05:04;1.15;;;0.75;;
16113;SDS011;8161;-33.910;151.156;2022-07-09T02:07:31;1.15;;;0.50;;
16113;SDS011;8161;-33.910;151.156;2022-07-09T02:09:59;2.30;;;1.10;;
16113;SDS011;8161;-33.910;151.156;2022-07-09T02:12:26;1.23;;;0.40;;
16113;SDS011;8161;-33.910;151.156;2022-07-09T02:14:53;2.80;;;0.52;;
16113;SDS011;8161;-33.910;151.156;2022-07-09T02:17:20;1.73;;;0.77;;
16113;SDS011;8161;-33.910;151.156;2022-07-09T02:19:48;0.85;;;0.40;;
16113;SDS011;8161;-33.910;151.156;2022-07-09T02:22:15;1.92;;;1.00;;
16113;SDS011;8161;-33.910;151.156;2022-07-09T02:24:42;1.70;;;0.90;;
16113;SDS011;8161;-33.910;151.156;2022-07-09T02:27:09;0.80;;;0.40;;
16113;SDS011;8161;-33.910;151.156;2022-07-09T02:29:37;1.48;;;0.40;;
16113;SDS011;8161;-33.910;151.156;2022-07-09T02:32:04;1.52;;;0.85;;
16113;SDS011;8161;-33.910;151.156;2022-07-09T02:34:32;0.63;;;0.47;;
16113;SDS011;8161;-33.910;151.156;2022-07-09T02:36:59;1.42;;;0.70;;
16113;SDS011;8161;-33.910;151.156;2022-07-09T02:39:26;3.35;;;1.10;;
16113;SDS011;8161;-33.910;151.156;2022-07-09T02:41:54;0.88;;;0.30;;
16113;SDS011;8161;-33.910;151.156;2022-07-09T02:44:21;2.50;;;0.32;;
16113;SDS011;8161;-33.910;151.156;2022-07-09T02:46:48;0.50;;;0.30;;
16113;SDS011;8161;-33.910;151.156;2022-07-09T02:49:15;2.67;;;0.90;;
16113;SDS011;8161;-33.910;151.156;2022-07-09T02:51:43;2.60;;;0.73;;
16113;SDS011;8161;-33.910;151.156;2022-07-09T02:54:11;0.40;;;0.30;;
16113;SDS011;8161;-33.910;151.156;2022-07-09T02:56:38;1.35;;;0.40;;
16113;SDS011;8161;-33.910;151.156;2022-07-09T02:59:05;0.65;;;0.30;;
16113;SDS011;8161;-33.910;151.156;2022-07-09T03:01:32;1.30;;;0.60;;
16113;SDS011;8161;-33.910;151.156;2022-07-09T03:04:00;1.15;;;0.40;;
16113;SDS011;8161;-33.910;151.156;2022-07-09T03:06:27;0.50;;;0.32;;
16113;SDS011;8161;-33.910;151.156;2022-07-09T03:08:54;0.90;;;0.70;;
16113;SDS011;8161;-33.910;151.156;2022-07-09T03:11:21;2.03;;;1.05;;
16113;SDS011;8161;-33.910;151.156;2022-07-09T03:13:48;0.73;;;0.50;;
16113;SDS011;8161;-33.910;151.156;2022-07-09T03:16:16;1.85;;;0.40;;
16113;SDS011;8161;-33.910;151.156;2022-07-09T03:18:43;1.05;;;0.50;;
16113;SDS011;8161;-33.910;151.156;2022-07-09T03:21:10;1.05;;;0.30;;
16113;SDS011;8161;-33.910;151.156;2022-07-09T03:23:38;0.75;;;0.40;;
16113;SDS011;8161;-33.910;151.156;2022-07-09T03:26:05;2.05;;;0.70;;
16113;SDS011;8161;-33.910;151.156;2022-07-09T03:28:33;1.15;;;0.50;;
16113;SDS011;8161;-33.910;151.156;2022-07-09T03:31:00;1.60;;;0.60;;
16113;SDS011;8161;-33.910;151.156;2022-07-09T03:33:28;1.33;;;0.47;;
16113;SDS011;8161;-33.910;151.156;2022-07-09T03:35:55;0.77;;;0.20;;
16113;SDS011;8161;-33.910;151.156;2022-07-09T03:38:23;0.88;;;0.50;;
16113;SDS011;8161;-33.910;151.156;2022-07-09T03:40:51;1.75;;;0.52;;
16113;SDS011;8161;-33.910;151.156;2022-07-09T03:43:18;3.03;;;1.27;;
16113;SDS011;8161;-33.910;151.156;2022-07-09T03:45:46;1.77;;;1.10;;
16113;SDS011;8161;-33.910;151.156;2022-07-09T03:48:13;1.00;;;0.60;;
16113;SDS011;8161;-33.910;151.156;2022-07-09T03:50:40;0.40;;;0.40;;
16113;SDS011;8161;-33.910;151.156;2022-07-09T03:53:08;2.13;;;0.57;;
16113;SDS011;8161;-33.910;151.156;2022-07-09T03:55:35;2.58;;;0.98;;
16113;SDS011;8161;-33.910;151.156;2022-07-09T03:58:02;3.63;;;1.70;;
16113;SDS011;8161;-33.910;151.156;2022-07-09T04:00:30;2.45;;;1.15;;
16113;SDS011;8161;-33.910;151.156;2022-07-09T04:02:57;1.30;;;0.60;;
16113;SDS011;8161;-33.910;151.156;2022-07-09T04:05:24;0.88;;;0.60;;
16113;SDS011;8161;-33.910;151.156;2022-07-09T04:07:51;0.70;;;0.50;;
16113;SDS011;8161;-33.910;151.156;2022-07-09T04:10:19;0.50;;;0.40;;
16113;SDS011;8161;-33.910;151.156;2022-07-09T04:12:46;1.80;;;0.90;;
16113;SDS011;8161;-33.910;151.156;2022-07-09T04:15:14;0.80;;;0.43;;
16113;SDS011;8161;-33.910;151.156;2022-07-09T04:17:41;0.98;;;0.50;;
16113;SDS011;8161;-33.910;151.156;2022-07-09T04:20:08;1.40;;;0.75;;
16113;SDS011;8161;-33.910;151.156;2022-07-09T04:22:36;1.60;;;0.70;;
16113;SDS011;8161;-33.910;151.156;2022-07-09T04:25:03;1.95;;;1.00;;
16113;SDS011;8161;-33.910;151.156;2022-07-09T04:27:31;2.38;;;1.20;;
16113;SDS011;8161;-33.910;151.156;2022-07-09T04:30:02;1.80;;;0.80;;
16113;SDS011;8161;-33.910;151.156;2022-07-09T04:32:30;4.05;;;0.77;;
16113;SDS011;8161;-33.910;151.156;2022-07-09T04:34:57;2.70;;;0.88;;
16113;SDS011;8161;-33.910;151.156;2022-07-09T04:37:25;2.63;;;0.73;;
16113;SDS011;8161;-33.910;151.156;2022-07-09T04:39:52;2.40;;;0.80;;
16113;SDS011;8161;-33.910;151.156;2022-07-09T04:42:19;2.95;;;1.52;;
16113;SDS011;8161;-33.910;151.156;2022-07-09T04:44:47;2.03;;;0.80;;
16113;SDS011;8161;-33.910;151.156;2022-07-09T04:47:14;1.92;;;0.82;;
16113;SDS011;8161;-33.910;151.156;2022-07-09T04:49:41;5.30;;;1.00;;
16113;SDS011;8161;-33.910;151.156;2022-07-09T04:52:08;1.25;;;0.80;;
16113;SDS011;8161;-33.910;151.156;2022-07-09T04:54:35;1.73;;;0.75;;
16113;SDS011;8161;-33.910;151.156;2022-07-09T04:57:03;1.70;;;1.02;;
16113;SDS011;8161;-33.910;151.156;2022-07-09T04:59:30;2.90;;;1.05;;
16113;SDS011;8161;-33.910;151.156;2022-07-09T05:01:58;4.43;;;1.08;;
16113;SDS011;8161;-33.910;151.156;2022-07-09T05:04:25;2.30;;;0.90;;
16113;SDS011;8161;-33.910;151.156;2022-07-09T05:06:52;2.78;;;1.10;;
16113;SDS011;8161;-33.910;151.156;2022-07-09T05:09:19;1.73;;;1.02;;
16113;SDS011;8161;-33.910;151.156;2022-07-09T05:11:46;2.70;;;1.42;;
16113;SDS011;8161;-33.910;151.156;2022-07-09T05:14:14;1.60;;;0.88;;
16113;SDS011;8161;-33.910;151.156;2022-07-09T05:16:42;1.92;;;0.88;;
16113;SDS011;8161;-33.910;151.156;2022-07-09T05:19:10;1.90;;;0.80;;
16113;SDS011;8161;-33.910;151.156;2022-07-09T05:21:38;1.67;;;0.90;;
16113;SDS011;8161;-33.910;151.156;2022-07-09T05:24:06;2.88;;;1.15;;
16113;SDS011;8161;-33.910;151.156;2022-07-09T05:26:34;4.50;;;1.05;;
16113;SDS011;8161;-33.910;151.156;2022-07-09T05:29:05;1.45;;;0.68;;
16113;SDS011;8161;-33.910;151.156;2022-07-09T05:31:32;1.83;;;0.90;;
16113;SDS011;8161;-33.910;151.156;2022-07-09T05:33:59;1.58;;;0.68;;
16113;SDS011;8161;-33.910;151.156;2022-07-09T05:36:26;2.38;;;1.10;;
16113;SDS011;8161;-33.910;151.156;2022-07-09T05:38:57;2.25;;;0.77;;
16113;SDS011;8161;-33.910;151.156;2022-07-09T05:41:25;2.40;;;1.00;;
16113;SDS011;8161;-33.910;151.156;2022-07-09T05:43:53;2.92;;;0.80;;
16113;SDS011;8161;-33.910;151.156;2022-07-09T05:46:20;5.53;;;0.82;;
16113;SDS011;8161;-33.910;151.156;2022-07-09T05:48:48;4.32;;;0.90;;
16113;SDS011;8161;-33.910;151.156;2022-07-09T05:51:15;2.92;;;1.25;;
16113;SDS011;8161;-33.910;151.156;2022-07-09T05:53:42;1.83;;;0.88;;
16113;SDS011;8161;-33.910;151.156;2022-07-09T05:56:09;4.25;;;1.10;;
16113;SDS011;8161;-33.910;151.156;2022-07-09T05:58:37;2.08;;;0.90;;
16113;SDS011;8161;-33.910;151.156;2022-07-09T06:01:04;3.40;;;0.85;;
16113;SDS011;8161;-33.910;151.156;2022-07-09T06:03:32;1.67;;;0.90;;
16113;SDS011;8161;-33.910;151.156;2022-07-09T06:06:00;1.25;;;0.70;;
16113;SDS011;8161;-33.910;151.156;2022-07-09T06:08:27;2.22;;;0.90;;
16113;SDS011;8161;-33.910;151.156;2022-07-09T06:10:54;1.88;;;0.73;;
16113;SDS011;8161;-33.910;151.156;2022-07-09T06:13:22;4.68;;;1.10;;
16113;SDS011;8161;-33.910;151.156;2022-07-09T06:15:49;1.42;;;0.73;;
16113;SDS011;8161;-33.910;151.156;2022-07-09T06:18:17;2.42;;;0.88;;
16113;SDS011;8161;-33.910;151.156;2022-07-09T06:20:44;4.53;;;1.50;;
16113;SDS011;8161;-33.910;151.156;2022-07-09T06:23:12;1.98;;;1.00;;
16113;SDS011;8161;-33.910;151.156;2022-07-09T06:25:39;9.68;;;1.30;;
16113;SDS011;8161;-33.910;151.156;2022-07-09T06:28:07;3.10;;;1.13;;
16113;SDS011;8161;-33.910;151.156;2022-07-09T06:30:34;2.67;;;1.08;;
16113;SDS011;8161;-33.910;151.156;2022-07-09T06:33:01;3.20;;;1.30;;
16113;SDS011;8161;-33.910;151.156;2022-07-09T06:35:29;2.50;;;1.52;;
16113;SDS011;8161;-33.910;151.156;2022-07-09T06:37:56;6.28;;;3.17;;
16113;SDS011;8161;-33.910;151.156;2022-07-09T06:40:24;4.85;;;2.90;;
16113;SDS011;8161;-33.910;151.156;2022-07-09T06:42:51;5.93;;;3.00;;
16113;SDS011;8161;-33.910;151.156;2022-07-09T06:45:18;5.13;;;2.15;;
16113;SDS011;8161;-33.910;151.156;2022-07-09T06:47:46;4.50;;;1.88;;
16113;SDS011;8161;-33.910;151.156;2022-07-09T06:50:13;3.50;;;1.40;;
16113;SDS011;8161;-33.910;151.156;2022-07-09T06:52:40;3.25;;;1.50;;
16113;SDS011;8161;-33.910;151.156;2022-07-09T06:55:08;3.22;;;1.65;;
16113;SDS011;8161;-33.910;151.156;2022-07-09T06:57:36;2.63;;;1.35;;
16113;SDS011;8161;-33.910;151.156;2022-07-09T07:00:04;2.38;;;1.20;;
16113;SDS011;8161;-33.910;151.156;2022-07-09T07:02:32;3.35;;;1.38;;
16113;SDS011;8161;-33.910;151.156;2022-07-09T07:04:59;4.95;;;1.70;;
16113;SDS011;8161;-33.910;151.156;2022-07-09T07:07:26;3.50;;;1.50;;
16113;SDS011;8161;-33.910;151.156;2022-07-09T07:09:54;7.85;;;1.48;;
16113;SDS011;8161;-33.910;151.156;2022-07-09T07:12:21;4.95;;;2.00;;
16113;SDS011;8161;-33.910;151.156;2022-07-09T07:14:48;1.90;;;1.40;;
16113;SDS011;8161;-33.910;151.156;2022-07-09T07:17:16;2.80;;;1.30;;
16113;SDS011;8161;-33.910;151.156;2022-07-09T07:19:44;2.33;;;1.35;;
16113;SDS011;8161;-33.910;151.156;2022-07-09T07:22:11;2.97;;;1.38;;
16113;SDS011;8161;-33.910;151.156;2022-07-09T07:24:38;2.85;;;1.60;;
16113;SDS011;8161;-33.910;151.156;2022-07-09T07:27:05;4.28;;;1.63;;
16113;SDS011;8161;-33.910;151.156;2022-07-09T07:29:33;2.67;;;1.80;;
16113;SDS011;8161;-33.910;151.156;2022-07-09T07:32:00;3.40;;;1.50;;
16113;SDS011;8161;-33.910;151.156;2022-07-09T07:34:27;3.40;;;1.48;;
16113;SDS011;8161;-33.910;151.156;2022-07-09T07:36:55;5.53;;;1.55;;
16113;SDS011;8161;-33.910;151.156;2022-07-09T07:39:22;5.65;;;2.38;;
16113;SDS011;8161;-33.910;151.156;2022-07-09T07:41:50;3.67;;;1.75;;
16113;SDS011;8161;-33.910;151.156;2022-07-09T07:44:17;4.47;;;2.28;;
16113;SDS011;8161;-33.910;151.156;2022-07-09T07:46:45;4.05;;;2.28;;
16113;SDS011;8161;-33.910;151.156;2022-07-09T07:49:12;5.18;;;3.03;;
16113;SDS011;8161;-33.910;151.156;2022-07-09T07:51:39;3.83;;;2.40;;
16113;SDS011;8161;-33.910;151.156;2022-07-09T07:54:08;5.60;;;3.10;;
16113;SDS011;8161;-33.910;151.156;2022-07-09T07:56:35;4.78;;;2.60;;
16113;SDS011;8161;-33.910;151.156;2022-07-09T07:59:05;6.53;;;2.95;;
16113;SDS011;8161;-33.910;151.156;2022-07-09T08:01:32;10.32;;;3.33;;
16113;SDS011;8161;-33.910;151.156;2022-07-09T08:03:59;7.63;;;4.18;;
16113;SDS011;8161;-33.910;151.156;2022-07-09T08:06:27;6.82;;;3.97;;
16113;SDS011;8161;-33.910;151.156;2022-07-09T08:08:55;6.05;;;3.20;;
16113;SDS011;8161;-33.910;151.156;2022-07-09T08:11:22;4.93;;;2.97;;
16113;SDS011;8161;-33.910;151.156;2022-07-09T08:13:49;4.03;;;2.17;;
16113;SDS011;8161;-33.910;151.156;2022-07-09T08:16:17;6.45;;;2.33;;
16113;SDS011;8161;-33.910;151.156;2022-07-09T08:18:44;3.53;;;2.17;;
16113;SDS011;8161;-33.910;151.156;2022-07-09T08:21:12;4.25;;;2.17;;
16113;SDS011;8161;-33.910;151.156;2022-07-09T08:23:39;4.88;;;2.40;;
16113;SDS011;8161;-33.910;151.156;2022-07-09T08:26:21;5.80;;;2.17;;
16113;SDS011;8161;-33.910;151.156;2022-07-09T08:28:51;6.70;;;2.70;;
16113;SDS011;8161;-33.910;151.156;2022-07-09T08:31:20;9.02;;;3.35;;
16113;SDS011;8161;-33.910;151.156;2022-07-09T08:33:48;5.00;;;3.15;;
16113;SDS011;8161;-33.910;151.156;2022-07-09T08:36:16;6.18;;;3.00;;
16113;SDS011;8161;-33.910;151.156;2022-07-09T08:38:44;6.95;;;3.42;;
16113;SDS011;8161;-33.910;151.156;2022-07-09T08:41:12;7.10;;;3.30;;
16113;SDS011;8161;-33.910;151.156;2022-07-09T08:43:42;9.45;;;3.38;;
16113;SDS011;8161;-33.910;151.156;2022-07-09T08:46:09;6.13;;;2.83;;
16113;SDS011;8161;-33.910;151.156;2022-07-09T08:48:37;4.22;;;2.35;;
16113;SDS011;8161;-33.910;151.156;2022-07-09T08:51:05;3.38;;;2.50;;
16113;SDS011;8161;-33.910;151.156;2022-07-09T08:53:32;6.07;;;2.78;;
16113;SDS011;8161;-33.910;151.156;2022-07-09T08:56:00;5.97;;;3.20;;
16113;SDS011;8161;-33.910;151.156;2022-07-09T08:58:27;7.78;;;4.35;;
16113;SDS011;8161;-33.910;151.156;2022-07-09T09:00:57;8.68;;;3.95;;
16113;SDS011;8161;-33.910;151.156;2022-07-09T09:03:24;6.18;;;4.20;;
16113;SDS011;8161;-33.910;151.156;2022-07-09T09:08:34;11.93;;;4.65;;
16113;SDS011;8161;-33.910;151.156;2022-07-09T09:11:06;11.73;;;5.18;;
16113;SDS011;8161;-33.910;151.156;2022-07-09T09:13:46;7.43;;;4.85;;
16113;SDS011;8161;-33.910;151.156;2022-07-09T09:16:14;8.15;;;4.85;;
16113;SDS011;8161;-33.910;151.156;2022-07-09T09:18:43;7.93;;;4.75;;
16113;SDS011;8161;-33.910;151.156;2022-07-09T09:21:12;9.75;;;5.75;;
16113;SDS011;8161;-33.910;151.156;2022-07-09T09:24:13;8.77;;;4.78;;
16113;SDS011;8161;-33.910;151.156;2022-07-09T09:26:33;8.82;;;5.43;;
16113;SDS011;8161;-33.910;151.156;2022-07-09T09:29:02;8.52;;;4.65;;
16113;SDS011;8161;-33.910;151.156;2022-07-09T09:31:34;7.93;;;5.20;;
16113;SDS011;8161;-33.910;151.156;2022-07-09T09:36:37;10.52;;;5.97;;
16113;SDS011;8161;-33.910;151.156;2022-07-09T09:41:36;12.50;;;6.97;;
16113;SDS011;8161;-33.910;151.156;2022-07-09T09:44:05;13.52;;;7.90;;
16113;SDS011;8161;-33.910;151.156;2022-07-09T09:46:38;11.55;;;7.03;;
16113;SDS011;8161;-33.910;151.156;2022-07-09T09:49:07;12.10;;;7.22;;
16113;SDS011;8161;-33.910;151.156;2022-07-09T09:52:19;14.13;;;7.85;;
16113;SDS011;8161;-33.910;151.156;2022-07-09T09:54:34;12.50;;;7.70;;
16113;SDS011;8161;-33.910;151.156;2022-07-09T09:57:07;12.90;;;6.93;;
16113;SDS011;8161;-33.910;151.156;2022-07-09T09:59:38;12.07;;;7.63;;
16113;SDS011;8161;-33.910;151.156;2022-07-09T10:02:12;13.20;;;7.28;;
16113;SDS011;8161;-33.910;151.156;2022-07-09T10:04:43;13.43;;;7.63;;
16113;SDS011;8161;-33.910;151.156;2022-07-09T10:07:11;17.25;;;8.43;;
16113;SDS011;8161;-33.910;151.156;2022-07-09T10:09:51;14.27;;;7.13;;
16113;SDS011;8161;-33.910;151.156;2022-07-09T10:12:26;18.92;;;8.27;;
16113;SDS011;8161;-33.910;151.156;2022-07-09T10:14:55;17.90;;;9.07;;
16113;SDS011;8161;-33.910;151.156;2022-07-09T10:17:24;15.70;;;8.80;;
16113;SDS011;8161;-33.910;151.156;2022-07-09T10:19:52;12.50;;;7.05;;
16113;SDS011;8161;-33.910;151.156;2022-07-09T10:22:34;14.32;;;7.25;;
16113;SDS011;8161;-33.910;151.156;2022-07-09T10:25:13;14.18;;;6.70;;
16113;SDS011;8161;-33.910;151.156;2022-07-09T10:27:53;10.45;;;5.95;;
16113;SDS011;8161;-33.910;151.156;2022-07-09T10:30:27;11.45;;;6.15;;
16113;SDS011;8161;-33.910;151.156;2022-07-09T10:33:21;9.35;;;6.30;;
16113;SDS011;8161;-33.910;151.156;2022-07-09T10:35:50;10.50;;;6.40;;
16113;SDS011;8161;-33.910;151.156;2022-07-09T10:38:18;11.90;;;6.97;;
16113;SDS011;8161;-33.910;151.156;2022-07-09T10:40:55;10.60;;;6.05;;
16113;SDS011;8161;-33.910;151.156;2022-07-09T10:46:14;9.38;;;5.88;;
16113;SDS011;8161;-33.910;151.156;2022-07-09T10:48:45;12.20;;;5.82;;
16113;SDS011;8161;-33.910;151.156;2022-07-09T10:51:19;9.77;;;5.65;;
16113;SDS011;8161;-33.910;151.156;2022-07-09T10:53:48;9.35;;;5.40;;
16113;SDS011;8161;-33.910;151.156;2022-07-09T10:56:17;9.00;;;4.75;;
16113;SDS011;8161;-33.910;151.156;2022-07-09T10:58:48;11.10;;;4.95;;
16113;SDS011;8161;-33.910;151.156;2022-07-09T11:01:19;8.45;;;5.07;;
16113;SDS011;8161;-33.910;151.156;2022-07-09T11:03:50;6.57;;;4.35;;
16113;SDS011;8161;-33.910;151.156;2022-07-09T11:06:19;7.53;;;4.47;;
16113;SDS011;8161;-33.910;151.156;2022-07-09T11:08:46;9.50;;;5.03;;
16113;SDS011;8161;-33.910;151.156;2022-07-09T11:11:20;11.27;;;5.65;;
16113;SDS011;8161;-33.910;151.156;2022-07-09T11:13:50;6.07;;;3.70;;
16113;SDS011;8161;-33.910;151.156;2022-07-09T11:16:23;6.07;;;3.63;;
16113;SDS011;8161;-33.910;151.156;2022-07-09T11:18:52;5.85;;;3.83;;
16113;SDS011;8161;-33.910;151.156;2022-07-09T11:21:25;6.07;;;3.58;;
16113;SDS011;8161;-33.910;151.156;2022-07-09T11:23:53;9.02;;;4.90;;
16113;SDS011;8161;-33.910;151.156;2022-07-09T11:26:20;8.98;;;5.63;;
16113;SDS011;8161;-33.910;151.156;2022-07-09T11:28:48;6.57;;;3.75;;
16113;SDS011;8161;-33.910;151.156;2022-07-09T11:31:17;4.60;;;3.17;;
16113;SDS011;8161;-33.910;151.156;2022-07-09T11:33:45;5.38;;;2.97;;
16113;SDS011;8161;-33.910;151.156;2022-07-09T11:36:34;4.05;;;2.80;;
16113;SDS011;8161;-33.910;151.156;2022-07-09T11:39:09;7.55;;;2.72;;
16113;SDS011;8161;-33.910;151.156;2022-07-09T11:41:47;3.25;;;2.25;;
16113;SDS011;8161;-33.910;151.156;2022-07-09T11:47:02;4.15;;;2.55;;
16113;SDS011;8161;-33.910;151.156;2022-07-09T11:49:41;2.97;;;2.10;;
16113;SDS011;8161;-33.910;151.156;2022-07-09T11:57:32;5.47;;;2.10;;
16113;SDS011;8161;-33.910;151.156;2022-07-09T12:00:02;3.20;;;1.88;;
16113;SDS011;8161;-33.910;151.156;2022-07-09T12:02:35;2.90;;;1.98;;
16113;SDS011;8161;-33.910;151.156;2022-07-09T12:05:03;3.10;;;2.05;;
16113;SDS011;8161;-33.910;151.156;2022-07-09T12:07:34;6.57;;;2.28;;
16113;SDS011;8161;-33.910;151.156;2022-07-09T12:10:03;6.18;;;2.03;;
16113;SDS011;8161;-33.910;151.156;2022-07-09T12:12:32;4.68;;;1.70;;
16113;SDS011;8161;-33.910;151.156;2022-07-09T12:15:01;3.05;;;1.83;;
16113;SDS011;8161;-33.910;151.156;2022-07-09T12:17:32;3.50;;;1.80;;
16113;SDS011;8161;-33.910;151.156;2022-07-09T12:19:59;2.53;;;1.70;;
16113;SDS011;8161;-33.910;151.156;2022-07-09T12:22:32;2.42;;;1.80;;
16113;SDS011;8161;-33.910;151.156;2022-07-09T12:24:59;3.42;;;1.80;;
16113;SDS011;8161;-33.910;151.156;2022-07-09T12:27:26;3.22;;;2.15;;
16113;SDS011;8161;-33.910;151.156;2022-07-09T12:29:53;3.85;;;2.53;;
16113;SDS011;8161;-33.910;151.156;2022-07-09T12:32:21;4.57;;;2.78;;
16113;SDS011;8161;-33.910;151.156;2022-07-09T12:34:48;4.20;;;2.35;;
16113;SDS011;8161;-33.910;151.156;2022-07-09T12:37:15;3.03;;;2.20;;
16113;SDS011;8161;-33.910;151.156;2022-07-09T12:39:43;4.57;;;1.85;;
16113;SDS011;8161;-33.910;151.156;2022-07-09T12:42:10;2.22;;;1.48;;
16113;SDS011;8161;-33.910;151.156;2022-07-09T12:44:37;3.90;;;1.60;;
16113;SDS011;8161;-33.910;151.156;2022-07-09T12:47:04;4.85;;;2.28;;
16113;SDS011;8161;-33.910;151.156;2022-07-09T12:49:31;3.87;;;1.83;;
16113;SDS011;8161;-33.910;151.156;2022-07-09T12:51:59;3.38;;;1.70;;
16113;SDS011;8161;-33.910;151.156;2022-07-09T12:54:26;2.57;;;1.57;;
16113;SDS011;8161;-33.910;151.156;2022-07-09T12:56:53;3.35;;;2.05;;
16113;SDS011;8161;-33.910;151.156;2022-07-09T12:59:21;4.30;;;1.65;;
16113;SDS011;8161;-33.910;151.156;2022-07-09T13:01:48;2.70;;;1.70;;
16113;SDS011;8161;-33.910;151.156;2022-07-09T13:04:15;5.83;;;2.10;;
16113;SDS011;8161;-33.910;151.156;2022-07-09T13:06:43;4.90;;;2.20;;
16113;SDS011;8161;-33.910;151.156;2022-07-09T13:09:10;5.17;;;2.00;;
16113;SDS011;8161;-33.910;151.156;2022-07-09T13:11:38;3.70;;;1.97;;
16113;SDS011;8161;-33.910;151.156;2022-07-09T13:14:05;4.00;;;1.80;;
16113;SDS011;8161;-33.910;151.156;2022-07-09T13:16:34;4.40;;;2.00;;
16113;SDS011;8161;-33.910;151.156;2022-07-09T13:19:02;4.53;;;1.93;;
16113;SDS011;8161;-33.910;151.156;2022-07-09T13:21:30;3.47;;;2.10;;
16113;SDS011;8161;-33.910;151.156;2022-07-09T13:23:57;3.33;;;2.20;;
16113;SDS011;8161;-33.910;151.156;2022-07-09T13:26:24;6.47;;;2.20;;
16113;SDS011;8161;-33.910;151.156;2022-07-09T13:28:52;4.07;;;2.37;;
16113;SDS011;8161;-33.910;151.156;2022-07-09T13:31:20;3.53;;;2.20;;
16113;SDS011;8161;-33.910;151.156;2022-07-09T13:33:47;6.17;;;2.07;;
16113;SDS011;8161;-33.910;151.156;2022-07-09T13:36:15;4.90;;;2.30;;
16113;SDS011;8161;-33.910;151.156;2022-07-09T13:38:43;8.20;;;2.57;;
16113;SDS011;8161;-33.910;151.156;2022-07-09T13:41:10;5.20;;;2.43;;
16113;SDS011;8161;-33.910;151.156;2022-07-09T13:43:37;4.50;;;2.70;;
16113;SDS011;8161;-33.910;151.156;2022-07-09T13:46:05;6.27;;;2.43;;
16113;SDS011;8161;-33.910;151.156;2022-07-09T13:48:32;7.13;;;3.17;;
16113;SDS011;8161;-33.910;151.156;2022-07-09T13:50:59;4.20;;;2.70;;
16113;SDS011;8161;-33.910;151.156;2022-07-09T13:53:27;5.90;;;3.37;;
16113;SDS011;8161;-33.910;151.156;2022-07-09T13:55:55;4.27;;;2.27;;
16113;SDS011;8161;-33.910;151.156;2022-07-09T13:58:22;5.43;;;2.30;;
16113;SDS011;8161;-33.910;151.156;2022-07-09T14:00:50;4.20;;;2.57;;
16113;SDS011;8161;-33.910;151.156;2022-07-09T14:03:17;4.30;;;2.30;;
16113;SDS011;8161;-33.910;151.156;2022-07-09T14:05:44;4.83;;;2.47;;
16113;SDS011;8161;-33.910;151.156;2022-07-09T14:08:12;3.83;;;2.37;;
16113;SDS011;8161;-33.910;151.156;2022-07-09T14:10:39;7.70;;;3.30;;
16113;SDS011;8161;-33.910;151.156;2022-07-09T14:13:06;7.13;;;2.90;;
16113;SDS011;8161;-33.910;151.156;2022-07-09T14:15:34;5.13;;;2.70;;
16113;SDS011;8161;-33.910;151.156;2022-07-09T14:18:02;2.93;;;1.77;;
16113;SDS011;8161;-33.910;151.156;2022-07-09T14:20:29;4.60;;;2.53;;
16113;SDS011;8161;-33.910;151.156;2022-07-09T14:22:57;6.83;;;4.13;;
16113;SDS011;8161;-33.910;151.156;2022-07-09T14:25:24;4.03;;;2.40;;
16113;SDS011;8161;-33.910;151.156;2022-07-09T14:27:51;5.00;;;2.30;;
16113;SDS011;8161;-33.910;151.156;2022-07-09T14:30:19;4.63;;;2.60;;
16113;SDS011;8161;-33.910;151.156;2022-07-09T14:32:50;4.67;;;2.23;;
16113;SDS011;8161;-33.910;151.156;2022-07-09T14:35:17;4.33;;;2.40;;
16113;SDS011;8161;-33.910;151.156;2022-07-09T14:37:44;4.80;;;2.47;;
16113;SDS011;8161;-33.910;151.156;2022-07-09T14:40:11;4.93;;;2.37;;
16113;SDS011;8161;-33.910;151.156;2022-07-09T14:42:39;7.00;;;2.60;;
16113;SDS011;8161;-33.910;151.156;2022-07-09T14:45:06;5.90;;;2.30;;
16113;SDS011;8161;-33.910;151.156;2022-07-09T14:47:37;5.37;;;2.43;;